createdAt,value
2022-09-01T00:01:39.427Z,99961.56
2022-09-01T00:05:46.352Z,99955.28
2022-09-01T00:09:49.978Z,99952.66
2022-09-01T00:13:54.816Z,99950.88
2022-09-01T00:17:58.178Z,99953.63
2022-09-01T00:22:03.659Z,99954.59
2022-09-01T00:26:07.572Z,99952.16
2022-09-01T00:30:11.878Z,99951.34
2022-09-01T00:34:15.213Z,99947.94
2022-09-01T00:38:20.194Z,99950.66
2022-09-01T00:42:24.508Z,99954.25
2022-09-01T00:46:30.244Z,99947.19
2022-09-01T00:50:34.199Z,99941.84
2022-09-01T00:54:42.886Z,99939.31
2022-09-01T00:58:46.633Z,99933.16
2022-09-01T01:02:56.483Z,99936.88
2022-09-01T01:07:03.171Z,99935.13
2022-09-01T01:11:11.640Z,99932.69
2022-09-01T01:15:15.302Z,99939.03
2022-09-01T01:19:39.089Z,99948.91
2022-09-01T01:23:51.095Z,99944.59
2022-09-01T01:28:06.385Z,99942.00
2022-09-01T01:32:13.119Z,99938.50
2022-09-01T01:36:21.626Z,99931.31
2022-09-01T01:40:26.139Z,99941.16
2022-09-01T01:44:31.108Z,99937.69
2022-09-01T01:48:39.795Z,99937.72
2022-09-01T01:52:45.468Z,99936.91
2022-09-01T01:56:49.830Z,99930.66
2022-09-01T02:00:56.556Z,99931.53
2022-09-01T02:05:00.537Z,99920.09
2022-09-01T02:09:04.503Z,99913.88
2022-09-01T02:13:08.258Z,99912.19
2022-09-01T02:17:13.043Z,99903.34
2022-09-01T02:21:19.809Z,99904.38
2022-09-01T02:25:23.520Z,99906.19
2022-09-01T02:29:28.896Z,99906.19
2022-09-01T02:33:34.177Z,99917.66
2022-09-01T02:37:41.387Z,99916.03
2022-09-01T02:41:46.225Z,99914.22
2022-09-01T02:45:54.458Z,99912.50
2022-09-01T02:50:01.120Z,99913.41
2022-09-01T02:54:06.433Z,99918.72
2022-09-01T02:58:16.384Z,99916.94
2022-09-01T03:02:19.701Z,99915.16
2022-09-01T03:06:25.165Z,99918.69
2022-09-01T03:10:32.791Z,99924.03
2022-09-01T03:14:36.344Z,99927.56
2022-09-01T03:18:40.506Z,99919.59
2022-09-01T03:22:45.581Z,99917.00
2022-09-01T03:26:50.397Z,99910.69
2022-09-01T03:30:56.881Z,99916.88
2022-09-01T03:35:00.392Z,99914.25
2022-09-01T03:39:05.254Z,99909.00
2022-09-01T03:43:10.940Z,99903.72
2022-09-01T03:47:15.321Z,99915.31
2022-09-01T03:51:20.717Z,99908.25
2022-09-01T03:55:29.973Z,99899.41
2022-09-01T03:59:34.119Z,99905.66
2022-09-01T04:03:40.437Z,99903.09
2022-09-01T04:07:48.686Z,99905.78
2022-09-01T04:11:53.159Z,99911.09
2022-09-01T04:15:58.311Z,99911.97
2022-09-01T04:20:08.815Z,99914.75
2022-09-01T04:24:14.844Z,99907.72
2022-09-01T04:28:24.794Z,99907.72
2022-09-01T04:32:28.561Z,99913.16
2022-09-01T04:36:34.865Z,99907.88
2022-09-01T04:40:40.318Z,99909.72
2022-09-01T04:44:45.478Z,99910.63
2022-09-01T04:48:49.376Z,99911.50
2022-09-01T04:52:56.037Z,99906.19
2022-09-01T04:57:06.898Z,99912.41
2022-09-01T05:01:20.208Z,99914.22
2022-09-01T05:05:24.287Z,99921.38
2022-09-01T05:09:28.881Z,99916.94
2022-09-01T05:13:40.374Z,99919.53
2022-09-01T05:17:45.297Z,99920.50
2022-09-01T05:21:49.867Z,99915.19
2022-09-01T05:25:54.848Z,99920.50
2022-09-01T05:30:00.823Z,99923.06
2022-09-01T05:34:08.035Z,99913.28
2022-09-01T05:38:15.872Z,99910.56
2022-09-01T05:42:19.401Z,99912.41
2022-09-01T05:46:25.721Z,99913.31
2022-09-01T05:50:31.543Z,99917.63
2022-09-01T05:54:35.765Z,99915.94
2022-09-01T06:03:04.763Z,99922.03
2022-09-01T06:07:16.270Z,99920.97
2022-09-01T06:11:33.049Z,99927.97
2022-09-01T06:15:39.105Z,99935.78
2022-09-01T06:19:42.752Z,99935.56
2022-09-01T06:23:51.168Z,99933.56
2022-09-01T06:27:54.296Z,99938.59
2022-09-01T06:31:59.894Z,99944.59
2022-09-01T06:36:04.284Z,99945.28
2022-09-01T06:40:16.917Z,99942.31
2022-09-01T06:44:22.818Z,99947.38
2022-09-01T06:48:35.955Z,99940.09
2022-09-01T07:01:32.388Z,99933.06
2022-09-01T07:10:23.593Z,99936.06
2022-09-01T07:19:04.059Z,99938.59
2022-09-01T07:23:12.045Z,99938.88
2022-09-01T07:27:16.258Z,99945.22
2022-09-01T07:44:44.166Z,99941.31
2022-09-01T07:53:34.387Z,99938.22
2022-09-01T07:57:38.059Z,99940.53
2022-09-01T08:01:43.234Z,99948.31
2022-09-01T08:05:51.309Z,99944.34
2022-09-01T08:09:56.114Z,99942.22
2022-09-01T08:14:05.174Z,99950.56
2022-09-01T08:18:09.720Z,99948.47
2022-09-01T08:22:14.665Z,99957.06
2022-09-01T08:26:28.820Z,99952.38
2022-09-01T08:30:33.594Z,99955.16
2022-09-01T08:34:37.659Z,99966.41
2022-09-01T08:38:43.255Z,99962.56
2022-09-01T08:42:56.763Z,99951.28
2022-09-01T08:47:04.885Z,99947.38
2022-09-01T08:51:20.736Z,99954.34
2022-09-01T08:55:42.939Z,99954.22
2022-09-01T08:59:46.903Z,99950.31
2022-09-01T09:04:16.959Z,99942.84
2022-09-01T09:08:41.240Z,99936.78
2022-09-01T09:12:56.716Z,99939.84
2022-09-01T09:17:00.748Z,99925.75
2022-09-01T09:21:13.075Z,99931.50
2022-09-01T09:25:19.622Z,99923.00
2022-09-01T09:29:24.655Z,99932.44
2022-09-01T09:33:51.658Z,99929.19
2022-09-01T09:37:56.235Z,99922.94
2022-09-01T09:42:09.512Z,99925.75
2022-09-01T09:46:26.699Z,99930.84
2022-09-01T09:50:32.455Z,99912.81
2022-09-01T09:54:36.792Z,99917.16
2022-09-01T09:58:42.895Z,99917.72
2022-09-01T10:02:53.313Z,99920.34
2022-09-01T10:06:56.388Z,99919.16
2022-09-01T10:10:59.692Z,99916.38
2022-09-01T10:15:11.666Z,99919.22
2022-09-01T10:19:17.102Z,99923.47
2022-09-01T10:23:20.626Z,99922.38
2022-09-01T10:27:27.915Z,99925.78
2022-09-01T10:31:36.023Z,99919.13
2022-09-01T10:35:45.762Z,99915.41
2022-09-01T10:40:12.181Z,99921.81
2022-09-01T10:44:21.215Z,99903.69
2022-09-01T10:48:32.054Z,99911.59
2022-09-01T10:53:04.977Z,99896.22
2022-09-01T10:57:12.767Z,99900.19
2022-09-01T11:01:34.998Z,99896.56
2022-09-01T11:06:11.989Z,99893.69
2022-09-01T11:10:34.986Z,99888.09
2022-09-01T11:14:50.198Z,99897.34
2022-09-01T11:18:54.031Z,99900.06
2022-09-01T11:23:03.826Z,99884.72
2022-09-01T11:27:09.988Z,99895.50
2022-09-01T11:31:26.950Z,99890.00
2022-09-01T11:35:31.179Z,99900.84
2022-09-01T11:39:40.673Z,99890.53
2022-09-01T11:43:45.174Z,99883.28
2022-09-01T11:47:50.872Z,99899.25
2022-09-01T11:51:54.555Z,99892.19
2022-09-01T11:56:17.508Z,99889.44
2022-09-01T12:00:28.732Z,99888.09
2022-09-01T12:04:36.322Z,99875.09
2022-09-01T12:08:41.637Z,99885.13
2022-09-01T12:12:44.831Z,99880.06
2022-09-01T12:16:58.629Z,99876.06
2022-09-01T12:21:03.980Z,99868.28
2022-09-01T12:25:34.693Z,99878.38
2022-09-01T12:29:39.235Z,99882.75
2022-09-01T12:33:45.844Z,99877.22
2022-09-01T12:37:50.553Z,99876.97
2022-09-01T12:42:06.564Z,99887.25
2022-09-01T12:46:17.341Z,99882.88
2022-09-01T12:50:43.925Z,99883.72
2022-09-01T12:54:47.669Z,99874.66
2022-09-01T12:58:53.982Z,99879.22
2022-09-01T13:03:14.849Z,99871.44
2022-09-01T13:07:19.358Z,99878.22
2022-09-01T13:11:22.680Z,99874.44
2022-09-01T13:15:26.921Z,99884.28
2022-09-01T13:19:30.592Z,99877.63
2022-09-01T13:23:35.464Z,99868.41
2022-09-01T13:27:38.703Z,99864.75
2022-09-01T13:32:16.633Z,99873.22
2022-09-01T13:40:33.065Z,99878.75
2022-09-01T13:44:36.957Z,99882.50
2022-09-01T13:53:03.878Z,99879.03
2022-09-01T13:57:08.800Z,99870.88
2022-09-01T14:01:13.757Z,99866.91
2022-09-01T14:05:17.808Z,99877.16
2022-09-01T14:09:20.967Z,99876.91
2022-09-01T14:13:26.605Z,99857.19
2022-09-01T14:17:29.851Z,99880.19
2022-09-01T14:21:33.419Z,99869.28
2022-09-01T14:25:37.743Z,99871.34
2022-09-01T14:33:45.374Z,99864.25
2022-09-01T14:37:48.910Z,99871.84
2022-09-01T14:41:52.525Z,99874.53
2022-09-01T14:46:07.265Z,99870.09
2022-09-01T14:50:10.939Z,99859.97
2022-09-01T14:54:14.083Z,99871.06
2022-09-01T14:58:17.213Z,99860.47
2022-09-01T15:02:22.053Z,99862.28
2022-09-01T15:06:25.714Z,99867.97
2022-09-01T15:10:29.617Z,99868.91
2022-09-01T15:14:33.423Z,99875.31
2022-09-01T15:18:38.163Z,99863.00
2022-09-01T15:22:42.019Z,99866.75
2022-09-01T15:26:46.794Z,99872.22
2022-09-01T15:30:51.122Z,99868.94
2022-09-01T15:34:59.009Z,99873.59
2022-09-01T15:39:02.311Z,99877.56
2022-09-01T15:43:06.863Z,99877.69
2022-09-01T15:47:09.953Z,99885.66
2022-09-01T15:51:34.874Z,99892.06
2022-09-01T15:55:43.956Z,99887.94
2022-09-01T15:59:46.999Z,99879.16
2022-09-01T16:03:50.290Z,99888.47
2022-09-01T16:12:04.287Z,99888.59
2022-09-01T16:16:22.141Z,99887.16
2022-09-01T16:20:27.492Z,99902.53
2022-09-01T16:24:34.325Z,99898.88
2022-09-01T16:28:39.054Z,99890.19
2022-09-01T16:32:45.943Z,99904.69
2022-09-01T16:36:57.781Z,99907.50
2022-09-01T16:41:09.354Z,99901.22
2022-09-01T16:45:21.415Z,99907.59
2022-09-01T16:49:34.174Z,99912.50
2022-09-01T16:53:53.430Z,99910.19
2022-09-01T16:58:04.872Z,99924.84
2022-09-01T17:02:22.299Z,99917.06
2022-09-01T17:06:31.853Z,99915.56
2022-09-01T17:10:42.443Z,99917.75
2022-09-01T17:14:55.239Z,99917.94
2022-09-01T17:19:00.349Z,99929.75
2022-09-01T17:23:08.867Z,99923.75
2022-09-01T17:27:19.554Z,99928.63
2022-09-01T17:31:35.033Z,99933.25
2022-09-01T17:35:43.563Z,99937.19
2022-09-01T17:39:55.415Z,99939.22
2022-09-01T17:44:12.737Z,99951.09
2022-09-01T17:48:20.769Z,99946.97
2022-09-01T17:52:40.003Z,99959.91
2022-09-01T17:56:53.519Z,99970.03
2022-09-01T18:01:02.426Z,99978.41
2022-09-01T18:05:12.659Z,99987.56
2022-09-01T18:09:19.021Z,99995.16
2022-09-01T18:13:51.428Z,100008.88
2022-09-01T18:17:55.339Z,100018.97
2022-09-01T18:22:04.340Z,100018.34
2022-09-01T18:26:16.136Z,100023.03
2022-09-01T18:30:42.644Z,100021.50
2022-09-01T18:35:02.204Z,100032.53
2022-09-01T18:39:13.115Z,100031.88
2022-09-01T18:43:30.192Z,100030.25
2022-09-01T18:47:35.403Z,100033.06
2022-09-01T18:52:00.893Z,100029.81
2022-09-01T18:56:15.053Z,100039.06
2022-09-01T19:00:20.336Z,100046.50
2022-09-01T19:04:29.580Z,100052.91
2022-09-01T19:08:45.495Z,100054.63
2022-09-01T19:12:57.340Z,100052.13
2022-09-01T19:17:16.432Z,100054.06
2022-09-01T19:21:22.818Z,100059.50
2022-09-01T19:25:36.863Z,100055.31
2022-09-01T19:29:47.934Z,100067.09
2022-09-01T19:33:56.116Z,100064.50
2022-09-01T19:37:59.215Z,100066.31
2022-09-01T19:42:07.751Z,100063.00
2022-09-01T19:46:25.833Z,100064.03
2022-09-01T19:50:35.924Z,100066.84
2022-09-01T19:54:51.968Z,100063.38
2022-09-01T19:59:02.324Z,100056.38
2022-09-01T20:03:12.590Z,100060.16
2022-09-01T20:07:28.946Z,100055.06
2022-09-01T20:11:44.728Z,100054.41
2022-09-01T20:15:55.394Z,100061.69
2022-09-01T20:20:07.731Z,100070.78
2022-09-01T20:24:19.750Z,100070.00
2022-09-01T20:28:29.620Z,100078.09
2022-09-01T20:32:41.087Z,100072.13
2022-09-01T20:36:51.633Z,100076.72
2022-09-01T20:40:57.964Z,100077.75
2022-09-01T20:45:06.616Z,100068.97
2022-09-01T20:49:10.577Z,100077.16
2022-09-01T20:53:27.663Z,100079.16
2022-09-01T20:57:41.576Z,100083.66
2022-09-01T21:01:50.206Z,100079.28
2022-09-01T21:05:59.669Z,100085.72
2022-09-01T21:10:11.174Z,100083.31
2022-09-01T21:14:40.056Z,100079.13
2022-09-01T21:18:53.988Z,100081.03
2022-09-01T21:22:57.757Z,100086.44
2022-09-01T21:27:07.596Z,100078.59
2022-09-01T21:31:10.781Z,100089.38
2022-09-01T21:35:16.787Z,100082.44
2022-09-01T21:39:19.957Z,100078.94
2022-09-01T21:43:29.462Z,100076.31
2022-09-01T21:47:33.845Z,100072.84
2022-09-01T21:51:36.968Z,100079.22
2022-09-01T21:55:41.099Z,100081.97
2022-09-01T21:59:45.590Z,100072.31
2022-09-01T22:03:48.846Z,100069.78
2022-09-01T22:07:51.920Z,100067.22
2022-09-01T22:11:54.943Z,100069.94
2022-09-01T22:15:59.612Z,100062.06
2022-09-01T22:20:03.337Z,100062.97
2022-09-01T22:24:07.422Z,100060.41
2022-09-01T22:28:11.475Z,100056.88
2022-09-01T22:32:15.914Z,100059.66
2022-09-01T22:36:24.772Z,100055.25
2022-09-01T22:40:27.983Z,100058.06
2022-09-01T22:44:31.603Z,100041.28
2022-09-01T22:48:36.500Z,100051.97
2022-09-01T22:52:40.172Z,100059.19
2022-09-01T22:56:44.095Z,100056.63
2022-09-01T23:00:50.796Z,100055.81
2022-09-01T23:04:55.397Z,100048.78
2022-09-01T23:09:00.809Z,100040.88
2022-09-01T23:13:03.927Z,100042.69
2022-09-01T23:17:06.996Z,100040.91
2022-09-01T23:21:14.122Z,100036.56
2022-09-01T23:25:17.769Z,100028.69
2022-09-01T23:29:21.328Z,100025.25
2022-09-01T23:33:25.834Z,100028.84
2022-09-01T23:37:30.562Z,100028.88
2022-09-01T23:41:36.335Z,100027.25
2022-09-01T23:45:41.034Z,100029.94
2022-09-01T23:49:44.149Z,100019.34
2022-09-01T23:53:49.558Z,100020.31
2022-09-01T23:57:52.630Z,100021.28
